Time;durP1;ratioP1;P1;durP2;ratioP2;P2;SDS_P1;SDS_P2;PMS_P1;PMS_P2;Temp;Humidity;BMP_temperature;BMP_pressure;BME280_temperature;BME280_humidity;BME280_pressure;Samples;Min_cycle;Max_cycle;Signal;HPM_P1;HPM_P2
2022/02/26 00:00:17;;;;;;;3.53;2.28;;;6.50;99.90;;;;;;5069989;28;20427;-49
2022/02/26 00:02:43;;;;;;;3.20;2.30;;;6.90;99.90;;;;;;5070676;28;20036;-49
2022/02/26 00:05:10;;;;;;;6.53;2.58;;;6.80;99.90;;;;;;5055147;28;20476;-49
2022/02/26 00:07:36;;;;;;;3.40;2.35;;;6.80;99.90;;;;;;5073395;28;20111;-49
2022/02/26 00:10:03;;;;;;;3.00;1.80;;;6.80;99.90;;;;;;5071745;28;20055;-50
2022/02/26 00:12:28;;;;;;;3.03;2.33;;;6.80;99.90;;;;;;5073575;28;20480;-50
2022/02/26 00:14:54;;;;;;;3.13;2.20;;;6.80;99.90;;;;;;5038341;28;20116;-50
2022/02/26 00:17:20;;;;;;;3.22;2.40;;;6.80;99.90;;;;;;5073590;28;20028;-49
2022/02/26 00:19:46;;;;;;;4.22;2.20;;;6.80;99.90;;;;;;5073366;28;20032;-49
2022/02/26 00:22:11;;;;;;;3.00;2.22;;;6.90;99.90;;;;;;5073595;28;20029;-49
2022/02/26 00:24:37;;;;;;;3.75;2.42;;;6.70;99.90;;;;;;5073401;28;20058;-49
2022/02/26 00:27:03;;;;;;;2.95;1.70;;;6.70;99.90;;;;;;5073519;28;20028;-50
2022/02/26 00:29:32;;;;;;;4.32;2.20;;;6.70;99.90;;;;;;5054613;28;20133;-50
2022/02/26 00:31:58;;;;;;;7.47;2.42;;;6.60;99.90;;;;;;5073395;28;20054;-50
2022/02/26 00:34:23;;;;;;;4.95;2.60;;;6.40;99.90;;;;;;5073411;28;20483;-50
2022/02/26 00:36:49;;;;;;;4.32;3.28;;;6.40;99.90;;;;;;5073178;28;20476;-49
2022/02/26 00:39:15;;;;;;;3.08;2.35;;;6.40;99.90;;;;;;5073016;28;20127;-50
2022/02/26 00:41:41;;;;;;;6.45;4.72;;;6.50;99.90;;;;;;5073154;28;20472;-50
2022/02/26 00:44:07;;;;;;;4.47;2.75;;;6.50;99.90;;;;;;5088163;28;20043;-49
2022/02/26 00:46:33;;;;;;;4.05;2.03;;;6.40;99.90;;;;;;5071497;28;20033;-49
2022/02/26 00:51:43;;;;;;;9.80;4.95;;;6.40;99.90;;;;;;5086200;28;20119;-49
2022/02/26 00:54:09;;;;;;;7.80;3.22;;;6.40;99.90;;;;;;5054599;28;20119;-49
2022/02/26 00:56:35;;;;;;;4.32;3.03;;;6.40;99.90;;;;;;5088093;28;20032;-49
2022/02/26 00:59:00;;;;;;;3.22;2.38;;;6.40;99.90;;;;;;5087972;28;20090;-49
2022/02/26 01:01:26;;;;;;;3.78;2.67;;;6.30;99.90;;;;;;5072865;28;20027;-49
2022/02/26 01:03:52;;;;;;;2.78;2.13;;;6.30;99.90;;;;;;5054412;28;20032;-50
2022/02/26 01:06:18;;;;;;;4.15;2.30;;;6.30;99.90;;;;;;5071255;28;20094;-50
2022/02/26 01:08:44;;;;;;;3.20;1.67;;;6.20;99.90;;;;;;5072895;28;20082;-49
2022/02/26 01:11:09;;;;;;;3.38;2.22;;;6.00;99.90;;;;;;5073903;28;20037;-49
2022/02/26 01:13:35;;;;;;;4.18;2.45;;;6.00;99.90;;;;;;5058212;28;20037;-49
2022/02/26 01:16:01;;;;;;;4.15;2.40;;;6.00;99.90;;;;;;5074775;28;20105;-49
2022/02/26 01:18:27;;;;;;;5.22;2.35;;;6.10;99.90;;;;;;5058189;28;20059;-49
2022/02/26 01:20:53;;;;;;;3.33;2.08;;;6.20;99.90;;;;;;5076967;28;20023;-49
2022/02/26 01:23:18;;;;;;;3.85;2.75;;;6.10;99.90;;;;;;5076894;28;20111;-48
2022/02/26 01:25:44;;;;;;;4.63;2.13;;;6.00;99.90;;;;;;5074750;28;20032;-49
2022/02/26 01:28:10;;;;;;;3.22;2.30;;;6.00;99.90;;;;;;5076454;28;20044;-49
2022/02/26 01:30:36;;;;;;;4.57;2.08;;;5.90;99.90;;;;;;5074676;28;20484;-49
2022/02/26 01:33:02;;;;;;;6.65;2.30;;;6.00;99.90;;;;;;5076368;28;20054;-49
2022/02/26 01:35:27;;;;;;;4.05;2.60;;;6.00;99.90;;;;;;5076390;28;20508;-49
2022/02/26 01:37:53;;;;;;;2.35;1.77;;;6.00;99.90;;;;;;5075977;28;20040;-49
2022/02/26 01:40:19;;;;;;;3.40;2.65;;;5.80;99.90;;;;;;5076609;28;20025;-49
2022/02/26 01:42:45;;;;;;;5.13;2.78;;;5.90;99.90;;;;;;5076084;28;20106;-49
2022/02/26 01:45:13;;;;;;;3.83;2.80;;;5.90;99.90;;;;;;5091242;28;20048;-49
2022/02/26 01:47:39;;;;;;;3.35;2.60;;;5.90;99.90;;;;;;5076469;28;20020;-50
2022/02/26 01:50:05;;;;;;;7.25;3.20;;;5.90;99.90;;;;;;5075978;28;20039;-49
2022/02/26 01:52:31;;;;;;;3.97;2.67;;;6.00;99.90;;;;;;5076227;28;20032;-49
2022/02/26 01:54:59;;;;;;;3.65;2.40;;;5.90;99.90;;;;;;5040143;28;20029;-49
2022/02/26 01:57:25;;;;;;;4.15;2.30;;;6.00;99.90;;;;;;5075950;28;20021;-50
2022/02/26 01:59:51;;;;;;;3.92;2.20;;;5.90;99.90;;;;;;5075965;28;20058;-49
2022/02/26 02:02:16;;;;;;;2.92;1.95;;;5.90;99.90;;;;;;5090835;28;20051;-49
2022/02/26 02:04:42;;;;;;;4.03;2.10;;;5.90;99.90;;;;;;5076087;28;20028;-49
2022/02/26 02:07:08;;;;;;;3.90;1.83;;;5.90;99.90;;;;;;5075757;28;20030;-49
2022/02/26 02:09:34;;;;;;;4.72;2.00;;;5.80;99.90;;;;;;5073887;28;20553;-49
2022/02/26 02:12:01;;;;;;;4.10;1.70;;;5.90;99.90;;;;;;5057191;28;20036;-48
2022/02/26 02:14:26;;;;;;;4.82;1.90;;;5.70;99.90;;;;;;5075939;28;20054;-49
2022/02/26 02:16:52;;;;;;;2.25;1.60;;;5.70;99.90;;;;;;5075754;28;20403;-49
2022/02/26 02:19:18;;;;;;;3.15;1.88;;;5.70;99.90;;;;;;5076015;28;20033;-48
2022/02/26 02:21:44;;;;;;;3.47;2.40;;;5.70;99.90;;;;;;5040175;28;20116;-49
2022/02/26 02:24:10;;;;;;;2.95;2.00;;;5.80;99.90;;;;;;5073693;28;20060;-49
2022/02/26 02:26:37;;;;;;;3.28;1.95;;;5.90;99.90;;;;;;5075501;28;20030;-48
2022/02/26 02:29:03;;;;;;;3.53;1.92;;;5.90;99.90;;;;;;5073467;28;20454;-49
2022/02/26 02:31:30;;;;;;;3.88;1.88;;;6.00;99.90;;;;;;5073690;28;20028;-49
2022/02/26 02:33:55;;;;;;;3.08;2.05;;;5.80;99.90;;;;;;5075268;28;20031;-49
2022/02/26 02:36:22;;;;;;;3.00;1.98;;;5.90;99.90;;;;;;5075350;28;20400;-50
2022/02/26 02:38:48;;;;;;;6.75;2.78;;;6.00;99.90;;;;;;5075062;28;20060;-50
2022/02/26 02:41:15;;;;;;;3.67;2.00;;;6.10;99.90;;;;;;5075259;28;20063;-49
2022/02/26 02:43:40;;;;;;;3.55;2.10;;;6.20;99.90;;;;;;5075078;28;20403;-49
2022/02/26 02:46:07;;;;;;;3.22;2.13;;;6.20;99.90;;;;;;5074902;28;20033;-49
2022/02/26 02:48:33;;;;;;;4.50;2.00;;;6.20;99.90;;;;;;5075016;28;20123;-49
2022/02/26 02:50:59;;;;;;;3.35;1.90;;;6.30;99.90;;;;;;5074974;28;20142;-48
2022/02/26 02:53:25;;;;;;;3.05;1.92;;;6.30;99.90;;;;;;5073035;28;20094;-49
2022/02/26 02:55:51;;;;;;;2.10;1.75;;;6.20;99.90;;;;;;5073105;28;20043;-49
2022/02/26 02:58:21;;;;;;;4.28;2.88;;;6.30;99.90;;;;;;5074837;28;20483;-49
2022/02/26 03:00:48;;;;;;;2.63;1.90;;;6.30;99.90;;;;;;5074847;28;20023;-49
2022/02/26 03:03:13;;;;;;;3.65;1.50;;;6.30;99.90;;;;;;5075085;28;20111;-49
2022/02/26 03:05:39;;;;;;;2.83;1.75;;;6.10;99.90;;;;;;5076276;28;20565;-50
2022/02/26 03:08:05;;;;;;;4.18;2.05;;;6.20;99.90;;;;;;5078658;28;20021;-49
2022/02/26 03:10:31;;;;;;;3.38;2.00;;;6.30;99.90;;;;;;5059306;28;20476;-49
2022/02/26 03:12:57;;;;;;;2.83;1.80;;;6.40;99.90;;;;;;5075794;28;20083;-49
2022/02/26 03:15:23;;;;;;;4.07;2.08;;;6.50;99.90;;;;;;5076332;28;20025;-49
2022/02/26 03:17:50;;;;;;;5.80;2.08;;;6.50;99.90;;;;;;5072937;28;20033;-49
2022/02/26 03:20:16;;;;;;;4.38;2.17;;;6.60;99.90;;;;;;5074512;28;20027;-50
2022/02/26 03:22:42;;;;;;;2.75;1.77;;;6.60;99.90;;;;;;5074456;28;20028;-49
2022/02/26 03:25:08;;;;;;;3.45;2.08;;;6.60;99.90;;;;;;5056162;28;20454;-49
2022/02/26 03:27:34;;;;;;;6.00;2.30;;;6.60;99.90;;;;;;5055726;28;20036;-49
2022/02/26 03:30:01;;;;;;;3.40;1.95;;;6.70;99.90;;;;;;5074033;28;20085;-49
2022/02/26 03:32:27;;;;;;;4.07;2.33;;;6.80;99.90;;;;;;5074183;28;20035;-49
2022/02/26 03:34:52;;;;;;;4.93;2.47;;;6.70;99.90;;;;;;5055376;28;20036;-49
2022/02/26 03:37:18;;;;;;;4.40;2.60;;;6.70;99.90;;;;;;5072464;28;20139;-49
2022/02/26 03:39:44;;;;;;;4.32;2.20;;;6.70;99.90;;;;;;5074019;28;20052;-49
2022/02/26 03:42:11;;;;;;;4.80;2.28;;;6.80;99.90;;;;;;5073920;28;20028;-50
2022/02/26 03:44:38;;;;;;;3.85;2.38;;;6.80;99.90;;;;;;5073889;28;20039;-49
2022/02/26 03:47:05;;;;;;;2.97;2.17;;;6.80;99.90;;;;;;5074129;28;20027;-49
2022/02/26 03:49:31;;;;;;;3.45;2.08;;;6.80;99.90;;;;;;5073618;28;20461;-49
2022/02/26 03:51:57;;;;;;;3.90;2.10;;;6.80;99.90;;;;;;5072168;28;20036;-48
2022/02/26 03:54:23;;;;;;;4.15;3.03;;;6.90;99.90;;;;;;5073904;28;20392;-49
2022/02/26 03:56:50;;;;;;;3.53;1.70;;;6.90;99.90;;;;;;5073691;28;20024;-49
2022/02/26 03:59:16;;;;;;;3.28;1.85;;;6.70;99.90;;;;;;5073793;28;20028;-49
2022/02/26 04:01:42;;;;;;;4.03;1.70;;;6.70;99.90;;;;;;5073484;28;20485;-48
2022/02/26 04:04:08;;;;;;;3.80;1.73;;;6.60;99.90;;;;;;5055140;28;20596;-49
2022/02/26 04:06:34;;;;;;;2.67;1.88;;;6.50;99.90;;;;;;5073524;28;20024;-49
2022/02/26 04:09:00;;;;;;;4.03;2.13;;;6.60;99.90;;;;;;5073572;28;20033;-49
2022/02/26 04:11:26;;;;;;;4.32;2.75;;;6.50;99.90;;;;;;5073514;28;20391;-49
2022/02/26 04:13:52;;;;;;;3.10;2.13;;;6.40;99.90;;;;;;5071911;28;20028;-49
2022/02/26 04:16:17;;;;;;;3.63;2.33;;;6.40;99.90;;;;;;5088514;28;20059;-49
2022/02/26 04:18:43;;;;;;;4.90;2.40;;;6.50;99.90;;;;;;5088257;28;20487;-49
2022/02/26 04:21:09;;;;;;;3.80;2.13;;;6.60;99.90;;;;;;5073505;28;20468;-49
2022/02/26 04:23:35;;;;;;;5.55;2.80;;;6.50;99.90;;;;;;5073236;28;20082;-48
2022/02/26 04:26:01;;;;;;;4.63;2.63;;;6.70;99.90;;;;;;5054946;28;20033;-49
2022/02/26 04:28:26;;;;;;;5.00;2.40;;;6.60;99.90;;;;;;5073311;28;20384;-49
2022/02/26 04:30:52;;;;;;;5.47;2.90;;;6.80;99.90;;;;;;5071291;28;20040;-49
2022/02/26 04:33:18;;;;;;;4.90;2.88;;;6.90;99.90;;;;;;5088273;28;20400;-50
2022/02/26 04:35:44;;;;;;;2.83;2.58;;;6.80;99.90;;;;;;5088199;28;20490;-48
2022/02/26 04:38:10;;;;;;;3.90;2.42;;;6.90;99.90;;;;;;5054269;28;20124;-49
2022/02/26 04:40:36;;;;;;;4.13;2.10;;;6.80;99.90;;;;;;5073161;28;20025;-49
2022/02/26 04:43:02;;;;;;;3.45;2.50;;;6.80;99.90;;;;;;5073129;28;20033;-49
2022/02/26 04:45:28;;;;;;;5.10;2.42;;;6.80;99.90;;;;;;5075999;28;20033;-49
2022/02/26 04:47:54;;;;;;;4.45;2.55;;;6.80;99.90;;;;;;5077126;28;20464;-49
2022/02/26 04:50:20;;;;;;;2.85;2.30;;;6.80;99.90;;;;;;5092395;28;20434;-49
2022/02/26 04:52:46;;;;;;;5.38;3.72;;;6.80;99.90;;;;;;5075481;28;20093;-48
2022/02/26 04:55:12;;;;;;;3.78;2.50;;;6.80;99.90;;;;;;5092236;28;20043;-49
2022/02/26 04:57:39;;;;;;;4.10;2.45;;;6.90;99.90;;;;;;5076949;28;20031;-49
2022/02/26 05:00:07;;;;;;;4.30;2.80;;;6.90;99.90;;;;;;5077059;28;20414;-49
2022/02/26 05:02:33;;;;;;;4.60;2.97;;;6.90;99.90;;;;;;5056522;28;20048;-49
2022/02/26 05:04:59;;;;;;;3.67;2.30;;;6.80;99.90;;;;;;5076766;28;20039;-49
2022/02/26 05:07:25;;;;;;;4.22;2.47;;;6.70;99.90;;;;;;5077099;28;20020;-48
2022/02/26 05:09:51;;;;;;;6.65;4.32;;;6.60;99.90;;;;;;5058342;28;20040;-49
2022/02/26 05:12:17;;;;;;;12.15;11.05;;;6.60;99.90;;;;;;5075954;28;20106;-49
2022/02/26 05:14:43;;;;;;;4.32;3.33;;;6.60;99.90;;;;;;5077228;28;20079;-49
2022/02/26 05:17:09;;;;;;;6.03;4.68;;;6.50;99.90;;;;;;5073252;28;20070;-49
2022/02/26 05:19:34;;;;;;;2.38;1.80;;;6.60;99.90;;;;;;5075646;28;20090;-49
2022/02/26 05:22:00;;;;;;;1.92;1.70;;;6.70;99.90;;;;;;5075857;28;20029;-49
2022/02/26 05:24:26;;;;;;;2.33;1.63;;;6.70;99.90;;;;;;5074090;28;20037;-49
2022/02/26 05:26:52;;;;;;;2.30;2.00;;;6.60;99.90;;;;;;5069019;28;20393;-49
2022/02/26 05:29:19;;;;;;;3.00;1.70;;;6.60;99.90;;;;;;5068111;28;20117;-49
2022/02/26 05:31:45;;;;;;;2.05;1.60;;;6.50;99.90;;;;;;5072885;28;20056;-51
2022/02/26 05:34:11;;;;;;;3.88;1.65;;;6.50;99.90;;;;;;5075822;28;20140;-51
2022/02/26 05:36:37;;;;;;;1.92;1.65;;;6.60;99.90;;;;;;5015298;28;20033;-50
2022/02/26 05:39:03;;;;;;;2.97;1.92;;;6.70;99.90;;;;;;5073037;28;20484;-50
2022/02/26 05:41:29;;;;;;;6.07;3.70;;;6.70;99.90;;;;;;5074244;28;20066;-49
2022/02/26 05:43:54;;;;;;;4.30;2.22;;;6.60;99.90;;;;;;5057491;28;20083;-50
2022/02/26 05:46:20;;;;;;;3.10;2.15;;;6.50;99.90;;;;;;5076584;28;20478;-50
2022/02/26 05:48:47;;;;;;;5.13;2.30;;;6.50;99.90;;;;;;5074941;28;20495;-50
2022/02/26 05:51:13;;;;;;;5.45;2.60;;;6.60;99.90;;;;;;5074904;28;20060;-50
2022/02/26 05:53:39;;;;;;;4.25;2.40;;;6.60;99.90;;;;;;5071174;28;20029;-51
2022/02/26 05:56:05;;;;;;;4.40;2.33;;;6.60;99.90;;;;;;5073466;28;20027;-50
2022/02/26 05:58:31;;;;;;;3.40;2.22;;;6.40;99.90;;;;;;5056347;28;20064;-50
2022/02/26 06:00:57;;;;;;;6.38;2.13;;;6.40;99.90;;;;;;5071721;28;20068;-50
2022/02/26 06:03:23;;;;;;;2.97;2.50;;;6.40;99.90;;;;;;5076088;28;20063;-50
2022/02/26 06:05:49;;;;;;;5.13;2.53;;;6.50;99.90;;;;;;5075950;28;20055;-50
2022/02/26 06:08:14;;;;;;;4.25;2.55;;;6.40;99.90;;;;;;5057144;28;20045;-50
2022/02/26 06:10:40;;;;;;;4.75;2.50;;;6.60;99.90;;;;;;5074690;28;20043;-50
2022/02/26 06:13:06;;;;;;;5.80;2.85;;;6.80;99.90;;;;;;5074213;28;20032;-50
2022/02/26 06:15:32;;;;;;;4.13;2.53;;;7.00;99.90;;;;;;5074765;28;20456;-49
2022/02/26 06:17:58;;;;;;;4.55;2.88;;;7.00;99.90;;;;;;5076755;28;20054;-50
2022/02/26 06:20:24;;;;;;;3.20;2.40;;;7.10;99.90;;;;;;5057430;28;20392;-50
2022/02/26 06:22:50;;;;;;;5.68;4.00;;;7.20;99.90;;;;;;5073699;28;20037;-50
2022/02/26 06:25:16;;;;;;;6.60;3.33;;;7.20;99.90;;;;;;5056994;28;20060;-50
2022/02/26 06:27:44;;;;;;;3.92;3.20;;;7.20;99.90;;;;;;5075398;28;20035;-50
2022/02/26 06:30:12;;;;;;;7.90;3.28;;;7.20;99.90;;;;;;5075231;28;20032;-50
2022/02/26 06:32:38;;;;;;;8.88;6.20;;;7.30;99.90;;;;;;5073700;28;20068;-50
2022/02/26 06:35:05;;;;;;;8.73;6.85;;;7.30;99.90;;;;;;5075231;28;20029;-50
2022/02/26 06:37:31;;;;;;;6.43;4.28;;;7.20;99.90;;;;;;5075285;28;20028;-50
2022/02/26 06:39:57;;;;;;;6.55;4.63;;;6.90;99.90;;;;;;5075367;28;20107;-50
2022/02/26 06:42:24;;;;;;;9.13;5.43;;;6.80;99.90;;;;;;5090319;28;20488;-50
2022/02/26 06:44:50;;;;;;;5.55;3.88;;;7.10;99.90;;;;;;5075117;28;20028;-50
2022/02/26 06:47:16;;;;;;;5.07;3.63;;;7.10;99.90;;;;;;5075231;28;20048;-50
2022/02/26 06:49:42;;;;;;;6.75;4.05;;;7.20;99.90;;;;;;5074941;28;20480;-49
2022/02/26 06:52:08;;;;;;;4.78;3.70;;;7.30;99.90;;;;;;5056823;28;20032;-50
2022/02/26 06:54:34;;;;;;;4.65;3.28;;;7.30;99.90;;;;;;5075145;28;20031;-50
2022/02/26 06:56:59;;;;;;;5.55;4.05;;;7.30;99.90;;;;;;5075540;28;20024;-50
2022/02/26 06:59:26;;;;;;;5.97;3.90;;;7.20;99.90;;;;;;5074960;28;20050;-49
2022/02/26 07:01:53;;;;;;;4.78;3.40;;;7.20;99.90;;;;;;5074803;28;20074;-50
2022/02/26 07:04:19;;;;;;;4.00;2.92;;;7.20;99.90;;;;;;5074774;28;20083;-50
2022/02/26 07:06:45;;;;;;;4.15;2.90;;;7.10;99.90;;;;;;5074724;28;20021;-50
2022/02/26 07:09:15;;;;;;;8.73;3.45;;;7.00;99.90;;;;;;5071694;28;20055;-50
2022/02/26 07:11:42;;;;;;;6.38;3.42;;;7.10;99.90;;;;;;5074806;28;20025;-50
2022/02/26 07:14:08;;;;;;;7.03;3.15;;;6.90;99.90;;;;;;5074527;28;20024;-50
2022/02/26 07:16:34;;;;;;;6.05;3.58;;;6.90;99.90;;;;;;5072943;28;20045;-50
2022/02/26 07:19:03;;;;;;;7.00;4.07;;;7.00;99.90;;;;;;5055961;28;20364;-49
2022/02/26 07:21:29;;;;;;;30.45;17.88;;;7.00;99.90;;;;;;5074250;28;20124;-50
2022/02/26 07:23:56;;;;;;;58.60;37.72;;;6.80;99.90;;;;;;5074467;28;20052;-50
2022/02/26 07:26:26;;;;;;;31.15;20.50;;;6.90;99.90;;;;;;5074261;28;20502;-50
2022/02/26 07:28:52;;;;;;;87.00;48.03;;;6.80;99.90;;;;;;5074002;28;20494;-50
2022/02/26 07:31:18;;;;;;;22.63;13.68;;;6.90;99.90;;;;;;5072430;28;20044;-50
2022/02/26 07:33:45;;;;;;;37.38;26.05;;;7.00;99.90;;;;;;5074089;28;20024;-50
2022/02/26 07:36:11;;;;;;;28.08;19.55;;;7.10;99.90;;;;;;5074394;28;20044;-50
2022/02/26 07:38:37;;;;;;;7.53;5.60;;;7.20;99.90;;;;;;5074018;28;20087;-50
2022/02/26 07:41:03;;;;;;;14.68;11.63;;;7.00;99.90;;;;;;5073939;28;20024;-50
2022/02/26 07:43:29;;;;;;;9.75;5.32;;;7.10;99.90;;;;;;5073997;28;20020;-50
2022/02/26 07:45:55;;;;;;;14.75;9.82;;;7.00;99.90;;;;;;5074113;28;20031;-50
2022/02/26 07:48:21;;;;;;;6.70;4.45;;;7.00;99.90;;;;;;5073935;28;20369;-50
2022/02/26 07:50:47;;;;;;;6.25;4.22;;;7.10;99.90;;;;;;5055443;28;20043;-50
2022/02/26 07:53:12;;;;;;;15.68;7.75;;;7.20;99.90;;;;;;5055506;28;20039;-50
2022/02/26 07:55:39;;;;;;;17.27;8.55;;;6.90;99.90;;;;;;5073825;28;20394;-50
2022/02/26 07:58:05;;;;;;;8.38;4.70;;;6.80;99.90;;;;;;5071986;28;20033;-49
2022/02/26 08:00:32;;;;;;;15.13;9.10;;;7.10;99.90;;;;;;5072150;28;20036;-50
2022/02/26 08:02:59;;;;;;;10.15;5.60;;;7.20;99.90;;;;;;5073675;28;20053;-50
2022/02/26 08:05:27;;;;;;;11.75;5.75;;;7.40;99.90;;;;;;5073740;28;20070;-50
2022/02/26 08:07:53;;;;;;;9.00;5.47;;;7.30;99.90;;;;;;5073532;28;20021;-50
2022/02/26 08:10:21;;;;;;;6.47;3.50;;;7.30;99.90;;;;;;5073614;28;20039;-50
2022/02/26 08:12:50;;;;;;;5.18;2.85;;;6.90;99.90;;;;;;5073591;28;20040;-50
2022/02/26 08:15:19;;;;;;;5.28;3.60;;;6.70;99.90;;;;;;5073575;28;20059;-50
2022/02/26 08:17:46;;;;;;;9.75;5.53;;;6.40;99.90;;;;;;5073569;28;20031;-50
2022/02/26 08:20:13;;;;;;;5.55;4.03;;;6.50;99.90;;;;;;5073198;28;20384;-49
2022/02/26 08:22:40;;;;;;;7.78;3.45;;;6.60;99.90;;;;;;5071771;28;20043;-50
2022/02/26 08:25:07;;;;;;;16.17;8.90;;;6.40;99.90;;;;;;5073350;28;20024;-50
2022/02/26 08:27:32;;;;;;;4.38;3.25;;;6.40;99.90;;;;;;5071516;28;20119;-50
2022/02/26 08:29:58;;;;;;;141.57;58.05;;;6.40;99.90;;;;;;5054615;28;20448;-50
2022/02/26 08:32:24;;;;;;;60.17;26.92;;;6.60;99.90;;;;;;5073301;28;20028;-50
2022/02/26 08:34:50;;;;;;;10.23;7.07;;;6.50;99.90;;;;;;5073088;28;20032;-50
2022/02/26 08:37:16;;;;;;;115.10;39.00;;;6.30;99.90;;;;;;5073178;28;20066;-49
2022/02/26 08:39:42;;;;;;;167.45;53.80;;;6.30;99.90;;;;;;5073194;28;20082;-50
2022/02/26 08:42:09;;;;;;;37.30;19.15;;;6.10;99.90;;;;;;5055033;28;20059;-50
2022/02/26 08:44:35;;;;;;;9.18;5.90;;;6.20;99.90;;;;;;5073139;28;20071;-49
2022/02/26 08:47:01;;;;;;;17.42;7.93;;;6.20;99.90;;;;;;5089349;28;20036;-50
2022/02/26 08:49:28;;;;;;;307.30;87.32;;;6.20;99.90;;;;;;5075887;28;20541;-50
2022/02/26 08:51:54;;;;;;;27.20;14.07;;;6.30;99.90;;;;;;5076402;28;20060;-49
2022/02/26 08:54:20;;;;;;;197.68;73.43;;;6.40;99.90;;;;;;5075659;28;20031;-50
2022/02/26 08:56:46;;;;;;;74.30;29.33;;;6.40;99.90;;;;;;5072994;28;20049;-49
2022/02/26 08:59:12;;;;;;;94.15;34.05;;;6.30;99.90;;;;;;5073148;28;20021;-50
2022/02/26 09:01:38;;;;;;;23.08;12.35;;;6.40;99.90;;;;;;5072930;28;20028;-50
2022/02/26 09:04:05;;;;;;;11.32;8.32;;;6.50;99.90;;;;;;5073042;28;20029;-50
2022/02/26 09:06:30;;;;;;;13.77;9.25;;;6.50;99.90;;;;;;5073004;28;20029;-50
2022/02/26 09:08:57;;;;;;;13.73;9.30;;;6.60;99.90;;;;;;5073093;28;20369;-49
2022/02/26 09:11:22;;;;;;;12.00;7.70;;;6.70;99.90;;;;;;5073161;28;20440;-50
2022/02/26 09:13:48;;;;;;;13.20;8.60;;;6.70;99.90;;;;;;5072893;28;20033;-50
2022/02/26 09:16:15;;;;;;;12.90;7.90;;;6.70;99.90;;;;;;5073013;28;20029;-49
2022/02/26 09:18:42;;;;;;;19.45;11.63;;;6.70;99.90;;;;;;5072908;28;20456;-50
2022/02/26 09:21:09;;;;;;;12.55;8.52;;;6.70;99.90;;;;;;5088109;28;20060;-49
2022/02/26 09:23:35;;;;;;;14.90;9.85;;;6.90;99.90;;;;;;5072710;28;20495;-50
2022/02/26 09:26:04;;;;;;;14.63;7.85;;;6.80;99.90;;;;;;5072974;28;20070;-49
2022/02/26 09:28:32;;;;;;;19.30;12.85;;;6.90;99.90;;;;;;5072717;28;20032;-50
2022/02/26 09:30:58;;;;;;;17.48;10.48;;;7.10;99.90;;;;;;5072989;28;20036;-50
2022/02/26 09:33:24;;;;;;;17.25;11.93;;;7.20;99.90;;;;;;5091630;28;20043;-49
2022/02/26 09:35:50;;;;;;;17.67;10.20;;;7.20;99.90;;;;;;5074756;28;20033;-50
2022/02/26 09:38:15;;;;;;;14.20;9.95;;;7.00;99.90;;;;;;5076388;28;20051;-49
2022/02/26 09:40:41;;;;;;;11.75;7.95;;;6.90;99.90;;;;;;5076260;28;20081;-50
2022/02/26 09:43:07;;;;;;;16.80;10.80;;;7.10;99.90;;;;;;5076527;28;20039;-50
2022/02/26 09:45:33;;;;;;;214.55;191.23;;;7.20;99.90;;;;;;5076183;28;20037;-49
2022/02/26 09:47:59;;;;;;;575.47;517.23;;;7.00;99.90;;;;;;5074327;28;20041;-49
2022/02/26 09:50:25;;;;;;;614.30;553.20;;;6.90;99.90;;;;;;5076027;28;20116;-50
2022/02/26 09:52:52;;;;;;;481.83;435.90;;;7.10;99.90;;;;;;5074451;28;20123;-49
2022/02/26 09:55:18;;;;;;;633.17;572.33;;;7.20;99.90;;;;;;5076129;28;20032;-49
2022/02/26 09:57:44;;;;;;;604.47;544.30;;;7.40;99.90;;;;;;5040771;28;20032;-49
2022/02/26 10:00:11;;;;;;;562.43;503.20;;;7.60;99.90;;;;;;5075903;28;20028;-49
2022/02/26 10:02:43;;;;;;;649.43;587.93;;;8.00;99.90;;;;;;5075935;28;20039;-49
2022/02/26 10:05:10;;;;;;;650.00;588.65;;;7.90;99.90;;;;;;5075942;28;20044;-49
2022/02/26 10:07:37;;;;;;;628.57;565.60;;;7.90;99.90;;;;;;5075814;28;20036;-50
2022/02/26 10:10:16;;;;;;;676.63;614.23;;;8.50;99.90;;;;;;5075748;28;20499;-50
2022/02/26 10:12:42;;;;;;;589.27;528.27;;;8.80;99.90;;;;;;5075706;28;20078;-49
2022/02/26 10:15:30;;;;;;;109.03;92.78;;;8.60;99.90;;;;;;5075913;28;20058;-49
2022/02/26 10:18:00;;;;;;;65.40;46.70;;;;;;;;;;5075197;28;20055;-48
2022/02/26 10:20:26;;;;;;;102.68;77.82;;;9.30;99.90;;;;;;5076337;28;20028;-49
2022/02/26 10:22:54;;;;;;;10.50;8.52;;;9.40;99.90;;;;;;5073784;28;20094;-50
2022/02/26 10:25:29;;;;;;;24.50;13.73;;;9.70;99.90;;;;;;5073370;28;20053;-49
2022/02/26 10:27:57;;;;;;;12.07;7.68;;;9.80;99.90;;;;;;5073343;28;20583;-49
2022/02/26 10:30:33;;;;;;;11.13;8.40;;;9.90;99.90;;;;;;5073345;28;20048;-49
2022/02/26 10:33:28;;;;;;;10.80;7.60;;;10.20;99.90;;;;;;5073402;28;20052;-50
2022/02/26 10:35:56;;;;;;;14.98;7.68;;;10.40;99.90;;;;;;5073104;28;20119;-49
2022/02/26 10:38:27;;;;;;;11.32;8.50;;;10.10;99.90;;;;;;5072942;28;20509;-50
2022/02/26 10:41:03;;;;;;;11.35;6.57;;;10.40;99.90;;;;;;5073197;28;20076;-49
2022/02/26 10:43:50;;;;;;;8.52;6.82;;;10.60;99.90;;;;;;5072830;28;20047;-50
2022/02/26 10:46:30;;;;;;;20.13;10.85;;;10.60;99.90;;;;;;5056157;28;20048;-49
2022/02/26 10:48:57;;;;;;;14.88;8.18;;;10.60;99.90;;;;;;5073042;28;20056;-49
2022/02/26 10:51:26;;;;;;;10.45;6.13;;;10.20;99.90;;;;;;5039837;28;20037;-50
2022/02/26 10:53:52;;;;;;;17.45;11.85;;;9.90;99.90;;;;;;5039519;28;20047;-50
2022/02/26 10:56:18;;;;;;;14.63;9.98;;;9.80;99.90;;;;;;5073956;28;20040;-49
2022/02/26 10:58:44;;;;;;;13.25;8.95;;;10.00;99.90;;;;;;5089916;28;20492;-50
2022/02/26 11:01:13;;;;;;;12.95;8.18;;;9.80;99.90;;;;;;5090284;28;20123;-49
2022/02/26 11:03:39;;;;;;;11.55;7.30;;;9.90;99.90;;;;;;5074721;28;20082;-49
2022/02/26 11:06:09;;;;;;;12.05;8.10;;;9.90;99.90;;;;;;5073163;28;20074;-50
2022/02/26 11:08:36;;;;;;;13.02;7.68;;;10.10;99.90;;;;;;5074564;28;20032;-51
2022/02/26 11:11:04;;;;;;;8.10;6.60;;;10.10;99.90;;;;;;5074551;28;20438;-50
2022/02/26 11:13:32;;;;;;;14.57;10.18;;;10.30;99.90;;;;;;5074590;28;20039;-49
2022/02/26 11:15:59;;;;;;;11.98;6.40;;;10.50;99.90;;;;;;5074591;28;20067;-50
2022/02/26 11:18:38;;;;;;;12.45;7.68;;;10.30;99.90;;;;;;5089782;28;20036;-50
2022/02/26 11:21:11;;;;;;;12.38;7.63;;;10.40;99.90;;;;;;5074558;28;20043;-50
2022/02/26 11:23:38;;;;;;;18.05;10.30;;;10.40;99.90;;;;;;5087257;28;20055;-50
2022/02/26 11:26:05;;;;;;;10.88;6.45;;;10.50;99.90;;;;;;5074612;28;20033;-50
2022/02/26 11:28:32;;;;;;;13.00;8.23;;;10.30;99.90;;;;;;5074318;28;20101;-50
2022/02/26 11:31:00;;;;;;;21.30;11.52;;;10.30;99.90;;;;;;5074136;28;20036;-49
2022/02/26 11:33:28;;;;;;;7.28;6.03;;;10.10;99.90;;;;;;5072474;28;20063;-49
2022/02/26 11:35:56;;;;;;;8.70;6.25;;;10.00;99.90;;;;;;5074041;28;20468;-50
2022/02/26 11:38:23;;;;;;;8.73;6.68;;;9.80;99.90;;;;;;5074100;28;20135;-49
2022/02/26 11:40:50;;;;;;;11.00;7.60;;;9.50;99.90;;;;;;5074069;28;20039;-50
2022/02/26 11:43:35;;;;;;;6.93;4.85;;;9.60;99.90;;;;;;5089182;28;20060;-50
2022/02/26 11:46:25;;;;;;;6.82;5.53;;;9.10;99.90;;;;;;5073905;28;20438;-50
2022/02/26 11:48:52;;;;;;;12.18;5.88;;;8.90;99.90;;;;;;5073645;28;20357;-50
2022/02/26 11:51:18;;;;;;;6.10;5.20;;;9.00;99.90;;;;;;5074163;28;20095;-50
2022/02/26 11:53:50;;;;;;;8.57;5.18;;;8.70;99.90;;;;;;5071555;28;20044;-49
2022/02/26 11:56:16;;;;;;;;;;;8.80;99.90;;;;;;5074283;28;20040;-49
2022/02/26 11:58:44;;;;;;;8.60;5.78;;;8.60;99.90;;;;;;5073845;28;20367;-49
2022/02/26 12:01:16;;;;;;;7.45;4.55;;;8.50;99.90;;;;;;5072069;28;20080;-49
2022/02/26 12:03:43;;;;;;;5.63;4.85;;;8.40;99.90;;;;;;5073759;28;20037;-49
2022/02/26 12:06:09;;;;;;;7.88;6.45;;;8.20;99.90;;;;;;5073665;28;20538;-50
2022/02/26 12:08:44;;;;;;;6.60;5.57;;;7.30;99.90;;;;;;5071921;28;20040;-50
2022/02/26 12:11:30;;;;;;;10.85;7.25;;;8.10;99.90;;;;;;5086231;28;20055;-49
2022/02/26 12:13:59;;;;;;;11.65;7.80;;;8.30;99.90;;;;;;5066147;28;20593;-50
2022/02/26 12:16:35;;;;;;;22.67;13.90;;;8.00;99.90;;;;;;5079158;28;20040;-49
2022/02/26 12:19:04;;;;;;;7.57;5.65;;;8.00;99.90;;;;;;5057946;28;20123;-49
2022/02/26 12:21:31;;;;;;;632.23;573.00;;;7.80;99.90;;;;;;5091467;28;20040;-49
2022/02/26 12:24:09;;;;;;;17.45;7.28;;;8.00;99.90;;;;;;5074904;28;20091;-49
2022/02/26 12:26:44;;;;;;;283.73;242.18;;;7.90;99.90;;;;;;5074955;28;20121;-49
2022/02/26 12:29:20;;;;;;;563.47;502.37;;;7.80;99.90;;;;;;5091430;28;20032;-49
2022/02/26 12:32:13;;;;;;;823.92;755.28;;;7.80;99.90;;;;;;5074514;28;20185;-50
2022/02/26 12:34:58;;;;;;;753.20;687.07;;;7.70;99.90;;;;;;5090880;28;20135;-49
2022/02/26 12:37:27;;;;;;;753.05;685.42;;;7.80;99.90;;;;;;5091397;28;20090;-50
2022/02/26 12:39:59;;;;;;;788.17;719.50;;;7.80;99.90;;;;;;5091271;28;20538;-50
2022/02/26 12:42:27;;;;;;;793.33;724.88;;;7.70;99.90;;;;;;5091420;28;20261;-49
2022/02/26 12:45:01;;;;;;;37.15;21.65;;;7.70;99.90;;;;;;5091527;28;20068;-49
2022/02/26 12:47:28;;;;;;;364.03;193.77;;;7.90;99.90;;;;;;5075451;28;20044;-49
2022/02/26 12:49:55;;;;;;;13.68;10.05;;;;;;;;;;5093323;28;20036;-49
2022/02/26 12:52:21;;;;;;;101.45;91.20;;;7.20;99.90;;;;;;5093549;28;20483;-49